Time;durP1;ratioP1;P1;durP2;ratioP2;P2;SDS_P1;SDS_P2;PMS_P1;PMS_P2;Temp;Humidity;BMP_temperature;BMP_pressure;BME280_temperature;BME280_humidity;BME280_pressure;Samples;Min_cycle;Max_cycle;Signal;HPM_P1;HPM_P2
2022/10/09 00:00:43;;;;;;;;;;;16.20;99.90;;;;;;5019427;28;19999;-78
2022/10/09 00:03:08;;;;;;;;;;;16.20;99.90;;;;;;5017882;28;19980;-79
2022/10/09 00:05:34;;;;;;;;;;;16.20;99.90;;;;;;5018984;28;19910;-81
2022/10/09 00:07:59;;;;;;;;;;;16.20;99.90;;;;;;5021923;28;19948;-81
2022/10/09 00:10:25;;;;;;;;;;;16.10;99.90;;;;;;5020392;28;19941;-80
2022/10/09 00:12:51;;;;;;;;;;;16.10;99.90;;;;;;5025882;28;19906;-81
2022/10/09 00:15:16;;;;;;;;;;;16.00;99.90;;;;;;5027210;28;19909;-79
2022/10/09 00:17:42;;;;;;;;;;;16.00;99.90;;;;;;5021518;28;19906;-78
2022/10/09 00:20:08;;;;;;;;;;;16.00;99.90;;;;;;5020605;28;19913;-78
2022/10/09 00:22:34;;;;;;;;;;;15.90;99.90;;;;;;5017750;28;19953;-80
2022/10/09 00:25:00;;;;;;;;;;;16.00;99.90;;;;;;5017048;28;19933;-83
2022/10/09 00:27:26;;;;;;;;;;;15.90;99.90;;;;;;5017889;28;19941;-79
2022/10/09 00:29:51;;;;;;;;;;;15.80;99.90;;;;;;5017587;28;19910;-79
2022/10/09 00:32:17;;;;;;;;;;;15.80;99.90;;;;;;5017314;28;19981;-79
2022/10/09 00:34:43;;;;;;;;;;;15.80;99.90;;;;;;5015160;28;20043;-79
2022/10/09 00:37:09;;;;;;;;;;;15.70;99.90;;;;;;5015320;28;19906;-79
2022/10/09 00:39:34;;;;;;;;;;;15.70;99.90;;;;;;5015016;28;19909;-79
2022/10/09 00:42:00;;;;;;;;;;;15.70;99.90;;;;;;5016236;28;19929;-78
2022/10/09 00:44:45;;;;;;;;;;;15.60;99.90;;;;;;5016193;28;20329;-79
2022/10/09 00:47:14;;;;;;;;;;;15.60;99.90;;;;;;5008695;28;19910;-81
2022/10/09 00:49:40;;;;;;;;;;;15.50;99.90;;;;;;5022953;28;19917;-79
2022/10/09 00:52:06;;;;;;;;;;;15.50;99.90;;;;;;5018247;28;19947;-79
2022/10/09 00:54:34;;;;;;;;;;;15.50;99.90;;;;;;5021616;28;19910;-78
2022/10/09 00:57:00;;;;;;;;;;;15.50;99.90;;;;;;5029151;28;19917;-78
2022/10/09 00:59:26;;;;;;;;;;;15.50;99.90;;;;;;5020483;28;19905;-79
2022/10/09 01:01:52;;;;;;;;;;;15.50;99.90;;;;;;5021952;28;19921;-77
2022/10/09 01:04:18;;;;;;;;;;;15.40;99.90;;;;;;5024027;28;19963;-78
2022/10/09 01:07:03;;;;;;;;;;;15.40;99.90;;;;;;5024595;28;20020;-78
2022/10/09 01:09:41;;;;;;;;;;;15.30;99.90;;;;;;5012775;28;19924;-77
2022/10/09 01:12:11;;;;;;;;;;;15.20;99.90;;;;;;5025146;28;19910;-79
2022/10/09 01:14:42;;;;;;;;;;;15.20;99.90;;;;;;5023355;28;20004;-78
2022/10/09 01:17:23;;;;;;;;;;;15.20;99.90;;;;;;5022199;28;19936;-78
2022/10/09 01:20:00;;;;;;;;;;;15.20;99.90;;;;;;5026216;28;19980;-79
2022/10/09 01:22:44;;;;;;;;;;;15.20;99.90;;;;;;5023982;28;19913;-79
2022/10/09 01:25:32;;;;;;;;;;;15.10;99.90;;;;;;5019120;28;19916;-78
2022/10/09 01:28:00;;;;;;;;;;;15.10;99.90;;;;;;5018123;28;20322;-78
2022/10/09 01:30:25;;;;;;;;;;;15.00;99.90;;;;;;5019660;28;19906;-79
2022/10/09 01:32:52;;;;;;;;;;;15.00;99.90;;;;;;5020858;28;20003;-79
2022/10/09 01:35:18;;;;;;;;;;;14.90;99.90;;;;;;5026056;28;19910;-78
2022/10/09 01:37:45;;;;;;;;;;;14.90;99.90;;;;;;5025995;28;20420;-81
2022/10/09 01:40:12;;;;;;;;;;;14.80;99.90;;;;;;5022939;28;19936;-78
2022/10/09 01:42:38;;;;;;;;;;;14.80;99.90;;;;;;5025664;28;19929;-77
2022/10/09 01:45:04;;;;;;;;;;;14.70;99.90;;;;;;5021386;28;19913;-78
2022/10/09 01:47:29;;;;;;;;;;;14.60;99.90;;;;;;5022962;28;19985;-78
2022/10/09 01:50:01;;;;;;;;;;;14.60;99.90;;;;;;5029279;28;19916;-80
2022/10/09 01:52:56;;;;;;;;;;;14.50;99.90;;;;;;5018819;28;19992;-79
2022/10/09 01:55:31;;;;;;;;;;;14.50;99.90;;;;;;5000928;28;19917;-76
2022/10/09 01:58:04;;;;;;;;;;;14.50;99.90;;;;;;5019655;28;19914;-79
2022/10/09 02:00:32;;;;;;;;;;;14.40;99.90;;;;;;5018066;28;19910;-78
2022/10/09 02:02:58;;;;;;;;;;;14.40;99.90;;;;;;5004338;28;19913;-79
2022/10/09 02:05:26;;;;;;;;;;;14.30;99.90;;;;;;5021419;28;19909;-78
2022/10/09 02:07:52;;;;;;;;;;;14.30;99.90;;;;;;5025238;28;20016;-80
2022/10/09 02:10:20;;;;;;;;;;;14.20;99.90;;;;;;5025622;28;20571;-78
2022/10/09 02:12:48;;;;;;;;;;;14.20;99.90;;;;;;5018545;28;19988;-78
2022/10/09 02:15:15;;;;;;;;;;;14.10;99.90;;;;;;5023584;28;19910;-79
2022/10/09 02:17:43;;;;;;;;;;;14.10;99.90;;;;;;5022784;28;19932;-78
2022/10/09 02:20:30;;;;;;;;;;;14.00;99.90;;;;;;5019748;28;19920;-79
2022/10/09 02:22:56;;;;;;;;;;;14.00;99.90;;;;;;5018736;28;20340;-79
2022/10/09 02:25:22;;;;;;;;;;;14.00;99.90;;;;;;5017976;28;20376;-78
2022/10/09 02:27:48;;;;;;;;;;;13.90;99.90;;;;;;5018683;28;19919;-79
2022/10/09 02:30:14;;;;;;;;;;;13.90;99.90;;;;;;5029126;28;19996;-78
2022/10/09 02:32:40;;;;;;;;;;;13.80;99.90;;;;;;5031161;28;19913;-77
2022/10/09 02:35:07;;;;;;;;;;;13.80;99.90;;;;;;5028536;28;19937;-78
2022/10/09 02:37:32;;;;;;;;;;;13.80;99.90;;;;;;5020632;28;19910;-78
2022/10/09 02:39:58;;;;;;;;;;;13.70;99.90;;;;;;5019104;28;19916;-78
2022/10/09 02:42:24;;;;;;;;;;;13.70;99.90;;;;;;5025974;28;19920;-78
2022/10/09 02:44:50;;;;;;;;;;;13.60;99.90;;;;;;5027807;28;19964;-77
2022/10/09 02:47:16;;;;;;;;;;;13.60;99.90;;;;;;5028643;28;19916;-78
2022/10/09 02:49:42;;;;;;;;;;;13.50;99.90;;;;;;5003165;28;19976;-78
2022/10/09 02:52:07;;;;;;;;;;;13.40;99.90;;;;;;5023833;28;20397;-78
2022/10/09 02:54:33;;;;;;;;;;;13.40;99.90;;;;;;5024540;28;19912;-77
2022/10/09 02:56:59;;;;;;;;;;;13.40;99.90;;;;;;5028934;28;19910;-77
2022/10/09 02:59:24;;;;;;;;;;;13.30;99.90;;;;;;5027378;28;19977;-79
2022/10/09 03:01:50;;;;;;;;;;;13.30;99.90;;;;;;5030202;28;19913;-77
2022/10/09 03:04:15;;;;;;;;;;;13.20;99.90;;;;;;5035334;28;19905;-78
2022/10/09 03:06:41;;;;;;;;;;;13.20;99.90;;;;;;5033206;28;19951;-78
2022/10/09 03:09:07;;;;;;;;;;;13.10;99.90;;;;;;5021214;28;19917;-79
2022/10/09 03:11:33;;;;;;;;;;;13.10;99.90;;;;;;5018136;28;19916;-80
2022/10/09 03:13:58;;;;;;;;;;;13.10;99.90;;;;;;5019137;28;19905;-80
2022/10/09 03:16:24;;;;;;;;;;;13.00;99.90;;;;;;5024838;28;20051;-78
2022/10/09 03:18:50;;;;;;;;;;;13.00;99.90;;;;;;5022836;28;19910;-80
2022/10/09 03:21:20;;;;;;;;;;;12.90;99.90;;;;;;5020155;28;19917;-80
2022/10/09 03:23:46;;;;;;;;;;;12.90;99.90;;;;;;5019858;28;19921;-79
2022/10/09 03:26:13;;;;;;;;;;;12.80;99.90;;;;;;5024144;28;19909;-78
2022/10/09 03:28:40;;;;;;;;;;;12.80;99.90;;;;;;5025012;28;19968;-79
2022/10/09 03:31:06;;;;;;;;;;;12.80;99.90;;;;;;5032164;28;19909;-78
2022/10/09 03:33:32;;;;;;;;;;;12.70;99.90;;;;;;5032824;28;19909;-79
2022/10/09 03:35:57;;;;;;;;;;;12.70;99.90;;;;;;5025340;28;19973;-80
2022/10/09 03:38:23;;;;;;;;;;;12.70;99.90;;;;;;5017087;28;19943;-78
2022/10/09 03:40:49;;;;;;;;;;;12.60;99.90;;;;;;5017369;28;19909;-79
2022/10/09 03:43:14;;;;;;;;;;;12.60;99.90;;;;;;5000410;28;20277;-78
2022/10/09 03:45:41;;;;;;;;;;;12.60;99.90;;;;;;5015925;28;19910;-79
2022/10/09 03:48:06;;;;;;;;;;;12.50;99.90;;;;;;5016556;28;20366;-79
2022/10/09 03:50:33;;;;;;;;;;;12.40;99.90;;;;;;5017828;28;19955;-79
2022/10/09 03:52:58;;;;;;;;;;;12.40;99.90;;;;;;5019023;28;20358;-78
2022/10/09 03:55:24;;;;;;;;;;;12.30;99.90;;;;;;5016800;28;19916;-80
2022/10/09 03:57:50;;;;;;;;;;;12.30;99.90;;;;;;5018164;28;20113;-80
2022/10/09 04:00:15;;;;;;;;;;;12.30;99.90;;;;;;5019161;28;19910;-78
2022/10/09 04:02:41;;;;;;;;;;;12.20;99.90;;;;;;5016708;28;20357;-78
2022/10/09 04:05:07;;;;;;;;;;;12.20;99.90;;;;;;5017761;28;19916;-77
2022/10/09 04:07:33;;;;;;;;;;;12.20;99.90;;;;;;5020822;28;20364;-76
2022/10/09 04:09:59;;;;;;;;;;;12.20;99.90;;;;;;5022638;28;19909;-78
2022/10/09 04:12:24;;;;;;;;;;;12.20;99.90;;;;;;5022468;28;19905;-78
2022/10/09 04:14:50;;;;;;;;;;;12.10;99.90;;;;;;5021374;28;19916;-79
2022/10/09 04:17:15;;;;;;;;;;;12.10;99.90;;;;;;5022897;28;19910;-78
2022/10/09 04:19:41;;;;;;;;;;;12.10;99.90;;;;;;5029326;28;19936;-78
2022/10/09 04:22:07;;;;;;;;;;;12.10;99.90;;;;;;5023989;28;19909;-78
2022/10/09 04:24:32;;;;;;;;;;;12.00;99.90;;;;;;5020830;28;19967;-77
2022/10/09 04:26:58;;;;;;;;;;;12.00;99.90;;;;;;5024214;28;19912;-77
2022/10/09 04:29:24;;;;;;;;;;;12.00;99.90;;;;;;5023798;28;20373;-78
2022/10/09 04:31:49;;;;;;;;;;;12.00;99.90;;;;;;5027590;28;19917;-78
2022/10/09 04:34:15;;;;;;;;;;;11.90;99.90;;;;;;5027228;28;19909;-77
2022/10/09 04:36:40;;;;;;;;;;;11.90;99.90;;;;;;5010970;28;19905;-78
2022/10/09 04:39:06;;;;;;;;;;;11.90;99.90;;;;;;5027847;28;19913;-78
2022/10/09 04:41:32;;;;;;;;;;;11.80;99.90;;;;;;5028022;28;19913;-77
2022/10/09 04:43:57;;;;;;;;;;;11.80;99.90;;;;;;5027804;28;19914;-77
2022/10/09 04:46:23;;;;;;;;;;;11.70;99.90;;;;;;5029352;28;20381;-78
2022/10/09 04:48:49;;;;;;;;;;;11.70;99.90;;;;;;5027674;28;19909;-77
2022/10/09 04:51:15;;;;;;;;;;;11.70;99.90;;;;;;5027216;28;19928;-77
2022/10/09 04:53:41;;;;;;;;;;;11.60;99.90;;;;;;5026715;28;19909;-79
2022/10/09 04:56:09;;;;;;;;;;;11.60;99.90;;;;;;5028329;28;19912;-78
2022/10/09 04:58:39;;;;;;;;;;;11.60;99.90;;;;;;5024133;28;19916;-77
2022/10/09 05:01:10;;;;;;;;;;;11.50;99.90;;;;;;5008231;28;19910;-79
2022/10/09 05:03:36;;;;;;;;;;;11.50;99.90;;;;;;5022517;28;19913;-78
2022/10/09 05:06:02;;;;;;;;;;;11.50;99.90;;;;;;5025376;28;19913;-77
2022/10/09 05:08:29;;;;;;;;;;;11.50;99.90;;;;;;5086013;22;19920;-88
2022/10/09 05:10:59;;;;;;;;;;;11.40;99.90;;;;;;5067278;28;19904;-87
2022/10/09 05:13:25;;;;;;;;;;;11.40;99.90;;;;;;5068044;28;19959;-88
2022/10/09 05:15:50;;;;;;;;;;;11.40;99.90;;;;;;5054659;28;19904;-88
2022/10/09 05:18:16;;;;;;;;;;;11.30;99.90;;;;;;5054554;28;19905;-88
2022/10/09 05:20:42;;;;;;;;;;;11.40;99.90;;;;;;5076719;28;19909;-88
2022/10/09 05:23:07;;;;;;;;;;;11.30;99.90;;;;;;5076115;28;19901;-86
2022/10/09 05:25:33;;;;;;;;;;;11.30;99.90;;;;;;5077444;28;19972;-87
2022/10/09 05:27:59;;;;;;;;;;;11.30;99.90;;;;;;5061573;28;19900;-89
2022/10/09 05:30:24;;;;;;;;;;;11.30;99.90;;;;;;5078234;28;19897;-89
2022/10/09 05:32:50;;;;;;;;;;;11.40;99.90;;;;;;5078088;28;19901;-90
2022/10/09 05:35:16;;;;;;;;;;;11.30;99.90;;;;;;5077956;28;19964;-87
2022/10/09 05:37:45;;;;;;;;;;;11.40;99.90;;;;;;5060696;28;19901;-87
2022/10/09 05:40:10;;;;;;;;;;;11.40;99.90;;;;;;5055071;28;19909;-87
2022/10/09 05:42:36;;;;;;;;;;;11.40;99.90;;;;;;5052040;28;19912;-89
2022/10/09 05:45:02;;;;;;;;;;;11.40;99.90;;;;;;5060292;28;19901;-88
2022/10/09 05:47:31;;;;;;;;;;;11.40;99.90;;;;;;5058434;28;19936;-90
2022/10/09 05:49:56;;;;;;;;;;;11.50;99.90;;;;;;5071561;28;19978;-88
2022/10/09 05:52:22;;;;;;;;;;;11.50;99.90;;;;;;5058197;28;19971;-89
2022/10/09 05:54:48;;;;;;;;;;;11.60;99.90;;;;;;5057430;28;19905;-90
2022/10/09 05:57:14;;;;;;;;;;;11.50;99.90;;;;;;5071646;28;19913;-89
2022/10/09 05:59:40;;;;;;;;;;;11.70;99.90;;;;;;5056418;28;19940;-89
2022/10/09 06:02:06;;;;;;;;;;;11.70;99.90;;;;;;5075863;28;19921;-89
2022/10/09 06:04:32;;;;;;;;;;;11.70;99.90;;;;;;5061422;28;19893;-89
2022/10/09 06:06:57;;;;;;;;;;;11.80;99.90;;;;;;5077100;28;19901;-88
2022/10/09 06:09:24;;;;;;;;;;;11.80;99.90;;;;;;5060471;28;19901;-88
2022/10/09 06:11:50;;;;;;;;;;;11.90;99.90;;;;;;5077200;28;19901;-88
2022/10/09 06:14:16;;;;;;;;;;;11.90;99.90;;;;;;5060255;28;19905;-89
2022/10/09 06:16:43;;;;;;;;;;;11.90;99.90;;;;;;5075694;28;19924;-90
2022/10/09 06:19:13;;;;;;;;;;;11.90;99.90;;;;;;5073547;28;19893;-88
2022/10/09 06:21:39;;;;;;;;;;;11.90;99.90;;;;;;5058574;28;19928;-89
2022/10/09 06:24:05;;;;;;;;;;;12.00;99.90;;;;;;5053880;28;19940;-88
2022/10/09 06:26:31;;;;;;;;;;;12.10;99.90;;;;;;5118747;23;19910;-87
2022/10/09 06:28:57;;;;;;;;;;;12.10;99.90;;;;;;5053837;23;19905;-88
2022/10/09 06:31:24;;;;;;;;;;;12.20;99.90;;;;;;5087414;22;19910;-88
2022/10/09 06:33:57;;;;;;;;;;;12.20;99.90;;;;;;5040537;28;19913;-87
2022/10/09 06:36:24;;;;;;;;;;;12.30;99.90;;;;;;5023795;28;19909;-89
2022/10/09 06:38:50;;;;;;;;;;;12.30;99.90;;;;;;5039699;28;19958;-88
2022/10/09 06:41:16;;;;;;;;;;;12.40;99.90;;;;;;5039953;28;19901;-87
2022/10/09 06:43:46;;;;;;;;;;;12.40;99.90;;;;;;5040151;28;19968;-88
2022/10/09 06:46:12;;;;;;;;;;;12.50;99.90;;;;;;5039605;28;19916;-87
2022/10/09 06:48:39;;;;;;;;;;;12.50;99.90;;;;;;5023003;28;19933;-88
2022/10/09 06:51:11;;;;;;;;;;;12.50;99.90;;;;;;5022890;28;19909;-88
2022/10/09 06:53:38;;;;;;;;;;;12.60;99.90;;;;;;5039972;28;19959;-89
2022/10/09 06:56:04;;;;;;;;;;;12.70;99.90;;;;;;5022869;28;19897;-87
2022/10/09 06:58:30;;;;;;;;;;;12.70;99.90;;;;;;5038962;28;19914;-89
2022/10/09 07:01:02;;;;;;;;;;;12.80;99.90;;;;;;5023191;28;19897;-87
2022/10/09 07:03:28;;;;;;;;;;;12.80;99.90;;;;;;5023223;28;19909;-87
2022/10/09 07:06:03;;;;;;;;;;;12.80;99.90;;;;;;5039351;28;19920;-88
2022/10/09 07:08:30;;;;;;;;;;;12.80;99.90;;;;;;5039224;28;19909;-88
2022/10/09 07:10:56;;;;;;;;;;;13.00;99.90;;;;;;5039394;28;19904;-88
2022/10/09 07:13:22;;;;;;;;;;;13.00;99.90;;;;;;5039097;28;19913;-88
2022/10/09 07:15:48;;;;;;;;;;;13.10;99.90;;;;;;5038433;28;19906;-88
2022/10/09 07:18:15;;;;;;;;;;;13.20;99.90;;;;;;5022314;28;19901;-88
2022/10/09 07:20:40;;;;;;;;;;;13.20;99.90;;;;;;5038914;28;19897;-90
2022/10/09 07:23:06;;;;;;;;;;;13.10;99.90;;;;;;5038881;28;19992;-88
2022/10/09 07:25:37;;;;;;;;;;;13.10;99.90;;;;;;5022298;28;19921;-88
2022/10/09 07:28:05;;;;;;;;;;;13.20;99.90;;;;;;5021827;28;19928;-88
2022/10/09 07:30:31;;;;;;;;;;;13.30;99.90;;;;;;5036396;28;19909;-89
2022/10/09 07:32:59;;;;;;;;;;;13.30;99.90;;;;;;5022743;28;19961;-87
2022/10/09 07:35:27;;;;;;;;;;;13.40;99.90;;;;;;5038672;28;19910;-89
2022/10/09 07:37:55;;;;;;;;;;;13.40;99.90;;;;;;5021314;28;19966;-89
2022/10/09 07:40:22;;;;;;;;;;;13.50;99.90;;;;;;5036615;28;19902;-89
2022/10/09 07:42:51;;;;;;;;;;;13.50;99.90;;;;;;5020280;28;19944;-87
2022/10/09 07:45:18;;;;;;;;;;;13.60;99.90;;;;;;5020826;28;19981;-89
2022/10/09 07:47:44;;;;;;;;;;;13.60;99.90;;;;;;5020142;28;19915;-89
2022/10/09 07:50:11;;;;;;;;;;;13.80;99.90;;;;;;5036448;28;19992;-89
2022/10/09 07:52:39;;;;;;;;;;;13.80;99.90;;;;;;5020236;28;19925;-88
2022/10/09 07:57:47;;;;;;;;;;;13.90;99.90;;;;;;5393381;22;19965;-89
2022/10/09 08:00:21;;;;;;;;;;;13.90;99.90;;;;;;5019421;28;19909;-89
2022/10/09 08:02:51;;;;;;;;;;;13.90;99.90;;;;;;5033405;28;19909;-89
2022/10/09 08:05:17;;;;;;;;;;;13.80;99.90;;;;;;5033388;28;19909;-90
2022/10/09 08:07:50;;;;;;;;;;;13.80;99.90;;;;;;5035043;28;19937;-88
2022/10/09 08:10:16;;;;;;;;;;;13.90;99.90;;;;;;5209606;22;20230;-89
2022/10/09 08:12:43;;;;;;;;;;;14.00;99.90;;;;;;5046473;28;19909;-89
2022/10/09 08:15:12;;;;;;;;;;;14.10;99.90;;;;;;5047665;28;19917;-90
2022/10/09 08:17:40;;;;;;;;;;;14.20;99.90;;;;;;5036583;28;19897;-90
2022/10/09 08:20:10;;;;;;;;;;;14.40;99.90;;;;;;5020502;28;19907;-88
2022/10/09 08:22:37;;;;;;;;;;;14.50;99.90;;;;;;5020601;28;19917;-88
2022/10/09 08:25:03;;;;;;;;;;;14.50;99.90;;;;;;5015856;28;19893;-89
2022/10/09 08:27:29;;;;;;;;;;;14.60;99.90;;;;;;5032028;28;19940;-89
2022/10/09 08:29:56;;;;;;;;;;;14.60;99.90;;;;;;5038220;28;19960;-90
2022/10/09 08:32:22;;;;;;;;;;;14.70;99.90;;;;;;5021925;28;19901;-88
2022/10/09 08:34:50;;;;;;;;;;;14.90;99.90;;;;;;5021592;28;19910;-88
2022/10/09 08:37:16;;;;;;;;;;;15.10;99.90;;;;;;5039031;28;19908;-89
2022/10/09 08:39:48;;;;;;;;;;;15.40;99.90;;;;;;5106523;22;19909;-89
2022/10/09 08:42:35;;;;;;;;;;;15.90;99.90;;;;;;5053745;28;19921;-87
2022/10/09 08:45:02;;;;;;;;;;;16.40;99.90;;;;;;5021629;28;19897;-90
2022/10/09 08:50:18;;;;;;;;;;;18.00;99.90;;;;;;5257754;22;19909;-89
2022/10/09 08:53:08;;;;;;;;;;;18.90;99.90;;;;;;5037706;28;19982;-90
2022/10/09 08:55:49;;;;;;;;;;;19.90;99.90;;;;;;5054055;28;19968;-89
2022/10/09 08:58:17;;;;;;;;;;;21.00;98.00;;;;;;5000470;28;19909;-89
2022/10/09 09:00:54;;;;;;;;;;;21.80;96.30;;;;;;5032040;28;19894;-89
2022/10/09 09:03:29;;;;;;;;;;;22.90;94.50;;;;;;5028545;28;19948;-89
2022/10/09 09:06:11;;;;;;;;;;;23.20;93.20;;;;;;5032409;28;19953;-89
2022/10/09 09:08:44;;;;;;;;;;;23.30;92.20;;;;;;5032084;28;19916;-89
2022/10/09 09:11:22;;;;;;;;;;;24.00;91.00;;;;;;5017452;28;19914;-89
2022/10/09 09:13:53;;;;;;;;;;;24.80;88.90;;;;;;5054817;22;19944;-90
2022/10/09 09:16:35;;;;;;;;;;;25.90;85.70;;;;;;5052430;28;19921;-89
2022/10/09 09:19:19;;;;;;;;;;;26.70;82.60;;;;;;5034970;28;19939;-90
2022/10/09 09:21:52;;;;;;;;;;;27.00;79.70;;;;;;5014687;28;19987;-89
2022/10/09 09:35:29;;;;;;;;;;;27.70;77.10;;;;;;5157326;27;19959;-88
2022/10/09 09:37:55;;;;;;;;;;;27.80;73.40;;;;;;5130093;28;19915;-88
2022/10/09 09:40:24;;;;;;;;;;;28.00;72.20;;;;;;5118847;28;19900;-90
2022/10/09 09:42:55;;;;;;;;;;;28.10;71.10;;;;;;5118414;28;19904;-90
2022/10/09 09:45:23;;;;;;;;;;;27.20;71.60;;;;;;5133553;28;19916;-87
2022/10/09 09:47:52;;;;;;;;;;;27.20;72.10;;;;;;5134749;28;19977;-87
2022/10/09 09:50:38;;;;;;;;;;;27.20;71.50;;;;;;5117243;28;19904;-88
2022/10/09 09:53:05;;;;;;;;;;;27.40;71.20;;;;;;5133796;28;19912;-88
2022/10/09 09:55:31;;;;;;;;;;;27.80;70.80;;;;;;5130203;28;19940;-89
2022/10/09 09:58:01;;;;;;;;;;;28.40;69.10;;;;;;5114095;28;19974;-91
2022/10/09 10:00:27;;;;;;;;;;;28.30;68.80;;;;;;5135648;28;19916;-90
2022/10/09 10:03:12;;;;;;;;;;;28.80;67.90;;;;;;5134954;28;19900;-91
2022/10/09 10:05:42;;;;;;;;;;;28.50;68.10;;;;;;5135054;28;19904;-89
2022/10/09 10:08:18;;;;;;;;;;;28.80;67.40;;;;;;5114927;28;19939;-92
2022/10/09 10:10:45;;;;;;;;;;;28.80;67.20;;;;;;5128582;28;19916;-89
2022/10/09 10:13:13;;;;;;;;;;;29.80;65.40;;;;;;5111428;28;19903;-87
2022/10/09 10:15:46;;;;;;;;;;;30.20;64.80;;;;;;5131798;28;19929;-91
2022/10/09 10:18:14;;;;;;;;;;;30.70;63.80;;;;;;5134522;28;19920;-89
2022/10/09 10:20:44;;;;;;;;;;;30.40;63.20;;;;;;5134291;28;19926;-90
2022/10/09 10:23:32;;;;;;;;;;;30.40;63.60;;;;;;5134322;28;19923;-91
2022/10/09 10:26:00;;;;;;;;;;;31.10;61.60;;;;;;5134370;28;19907;-90
2022/10/09 10:28:28;;;;;;;;;;;31.10;61.10;;;;;;5133690;28;19919;-89
2022/10/09 10:30:55;;;;;;;;;;;29.90;61.30;;;;;;5131472;28;19927;-89
2022/10/09 10:33:26;;;;;;;;;;;30.40;61.50;;;;;;5112552;28;19998;-88
2022/10/09 10:35:54;;;;;;;;;;;30.50;61.00;;;;;;5110536;28;20003;-87
2022/10/09 10:38:26;;;;;;;;;;;30.60;60.20;;;;;;5104098;28;19926;-88
2022/10/09 10:40:55;;;;;;;;;;;29.70;61.10;;;;;;5105757;28;19912;-90
2022/10/09 10:43:33;;;;;;;;;;;28.70;62.30;;;;;;5125295;28;19912;-90
2022/10/09 10:46:17;;;;;;;;;;;27.70;63.30;;;;;;5119907;28;19931;-90
2022/10/09 10:48:46;;;;;;;;;;;27.80;63.50;;;;;;5118139;28;19942;-89
2022/10/09 10:51:12;;;;;;;;;;;27.80;63.30;;;;;;5111491;28;19918;-88
2022/10/09 10:53:56;;;;;;;;;;;28.40;62.90;;;;;;5112193;28;19980;-88
2022/10/09 10:56:28;;;;;;;;;;;28.40;62.50;;;;;;5095535;28;19916;-88
2022/10/09 10:59:06;;;;;;;;;;;28.80;62.20;;;;;;5111080;28;19916;-90
2022/10/09 11:01:38;;;;;;;;;;;29.30;61.80;;;;;;5114577;28;19955;-89
2022/10/09 11:04:22;;;;;;;;;;;30.00;60.20;;;;;;5113329;28;20033;-88
2022/10/09 11:06:56;;;;;;;;;;;30.40;59.60;;;;;;5097260;28;19912;-88
2022/10/09 11:09:34;;;;;;;;;;;29.90;58.70;;;;;;5096498;22;19970;-79
2022/10/09 11:12:20;;;;;;;;;;;28.40;59.90;;;;;;5079410;28;19912;-79
2022/10/09 11:14:52;;;;;;;;;;;28.60;60.10;;;;;;5070875;28;19931;-80
2022/10/09 11:17:21;;;;;;;;;;;29.50;59.40;;;;;;5064084;28;19972;-80
2022/10/09 11:19:51;;;;;;;;;;;29.50;58.40;;;;;;5062447;28;19940;-80
2022/10/09 11:22:29;;;;;;;;;;;29.70;58.30;;;;;;5065570;28;19940;-81
2022/10/09 11:25:01;;;;;;;;;;;29.50;58.10;;;;;;5061387;28;19916;-83
2022/10/09 11:27:38;;;;;;;;;;;29.50;58.10;;;;;;5059698;28;19913;-81
2022/10/09 11:30:11;;;;;;;;;;;29.80;57.90;;;;;;5062583;28;19935;-79
2022/10/09 11:32:51;;;;;;;;;;;29.80;57.40;;;;;;5061607;28;19913;-80
2022/10/09 11:35:24;;;;;;;;;;;29.60;57.50;;;;;;5060458;28;19917;-82
2022/10/09 11:38:00;;;;;;;;;;;29.90;56.90;;;;;;5061120;28;19920;-80
2022/10/09 11:40:29;;;;;;;;;;;30.20;56.90;;;;;;5060086;28;20364;-79
2022/10/09 11:43:13;;;;;;;;;;;30.30;56.60;;;;;;5060383;28;19966;-80
2022/10/09 11:45:45;;;;;;;;;;;30.20;56.50;;;;;;5060511;28;20361;-81
2022/10/09 11:48:29;;;;;;;;;;;30.10;56.80;;;;;;5062747;28;19976;-81
2022/10/09 11:51:24;;;;;;;;;;;30.20;56.80;;;;;;5061368;28;19940;-82
2022/10/09 11:53:51;;;;;;;;;;;30.10;56.70;;;;;;5059097;28;19962;-80
2022/10/09 11:56:21;;;;;;;;;;;30.10;56.80;;;;;;5065969;28;19909;-80
2022/10/09 11:58:57;;;;;;;;;;;29.30;57.20;;;;;;5066663;28;19913;-82
2022/10/09 12:01:24;;;;;;;;;;;29.10;58.00;;;;;;5066701;28;19912;-80
2022/10/09 12:04:01;;;;;;;;;;;29.10;57.80;;;;;;5067061;28;19948;-79
2022/10/09 12:06:28;;;;;;;;;;;29.60;57.40;;;;;;5061468;28;19940;-81
2022/10/09 12:09:01;;;;;;;;;;;29.80;56.70;;;;;;5057647;28;20377;-80
2022/10/09 12:11:27;;;;;;;;;;;29.40;57.00;;;;;;5059226;28;19924;-81
2022/10/09 12:13:57;;;;;;;;;;;29.30;57.00;;;;;;5056686;28;19984;-80
2022/10/09 12:16:38;;;;;;;;;;;29.10;56.50;;;;;;5059679;28;19917;-79
2022/10/09 12:19:10;;;;;;;;;;;28.70;57.20;;;;;;5057693;28;19920;-80
2022/10/09 12:21:38;;;;;;;;;;;28.70;56.70;;;;;;5058979;28;19913;-80
2022/10/09 12:24:05;;;;;;;;;;;29.30;56.70;;;;;;5058215;28;19916;-82
2022/10/09 12:26:32;;;;;;;;;;;29.70;56.70;;;;;;5059588;28;20361;-81
2022/10/09 12:29:02;;;;;;;;;;;29.70;56.50;;;;;;5058916;28;19954;-81
2022/10/09 12:31:32;;;;;;;;;;;28.70;57.10;;;;;;5057405;28;19913;-81
2022/10/09 12:34:19;;;;;;;;;;;27.60;57.70;;;;;;5066772;28;19916;-80
2022/10/09 12:36:45;;;;;;;;;;;26.70;58.80;;;;;;5065458;28;20313;-81
2022/10/09 12:39:11;;;;;;;;;;;25.30;60.60;;;;;;5061593;28;19923;-81
2022/10/09 12:41:37;;;;;;;;;;;24.30;62.00;;;;;;5062460;28;19913;-83
2022/10/09 12:44:05;;;;;;;;;;;23.40;63.70;;;;;;5063197;28;19909;-80
2022/10/09 12:46:32;;;;;;;;;;;23.00;64.60;;;;;;5060426;28;19913;-81
2022/10/09 12:48:59;;;;;;;;;;;22.50;65.70;;;;;;5059456;28;20365;-81
2022/10/09 12:51:27;;;;;;;;;;;22.00;66.60;;;;;;5058960;28;20400;-81
2022/10/09 12:53:53;;;;;;;;;;;21.70;67.10;;;;;;5057837;28;19970;-79
2022/10/09 12:56:24;;;;;;;;;;;21.50;67.60;;;;;;5057107;28;19919;-81
2022/10/09 12:58:50;;;;;;;;;;;21.50;68.40;;;;;;5056443;28;20398;-83
2022/10/09 13:01:16;;;;;;;;;;;21.40;68.10;;;;;;5056092;28;19909;-79
2022/10/09 13:03:51;;;;;;;;;;;21.30;68.40;;;;;;5056642;28;19913;-80
2022/10/09 13:06:18;;;;;;;;;;;21.00;68.20;;;;;;5059574;28;20514;-80
2022/10/09 13:08:44;;;;;;;;;;;20.90;68.70;;;;;;5062981;28;20003;-78
2022/10/09 13:11:22;;;;;;;;;;;20.60;69.70;;;;;;5060875;28;19920;-78
2022/10/09 13:13:52;;;;;;;;;;;20.40;70.90;;;;;;5057385;28;20363;-82
2022/10/09 13:16:18;;;;;;;;;;;20.30;71.60;;;;;;5039468;28;19912;-81
2022/10/09 13:18:54;;;;;;;;;;;20.20;72.10;;;;;;5056633;28;20003;-80
2022/10/09 13:21:25;;;;;;;;;;;20.20;71.90;;;;;;5055499;28;19912;-79
2022/10/09 13:23:51;;;;;;;;;;;19.90;71.90;;;;;;5056724;28;20448;-79
2022/10/09 13:26:27;;;;;;;;;;;19.90;71.90;;;;;;5057766;28;19979;-80
2022/10/09 13:28:53;;;;;;;;;;;19.80;71.80;;;;;;5058131;28;19912;-79
2022/10/09 13:31:19;;;;;;;;;;;19.60;72.20;;;;;;5069056;28;20368;-83
2022/10/09 13:33:46;;;;;;;;;;;19.40;72.50;;;;;;5066151;28;19928;-82
2022/10/09 13:36:12;;;;;;;;;;;19.20;72.80;;;;;;5059369;28;19916;-79
2022/10/09 13:38:38;;;;;;;;;;;19.10;74.10;;;;;;5057810;28;20003;-80
2022/10/09 13:41:03;;;;;;;;;;;19.10;73.30;;;;;;5057224;28;20273;-82
2022/10/09 13:43:30;;;;;;;;;;;19.00;72.80;;;;;;5058849;28;20019;-81
2022/10/09 13:45:55;;;;;;;;;;;19.00;73.80;;;;;;5065163;28;20448;-81
2022/10/09 13:48:21;;;;;;;;;;;19.00;73.60;;;;;;5060435;28;19913;-81
2022/10/09 13:50:47;;;;;;;;;;;19.00;73.70;;;;;;5057594;28;19955;-82
2022/10/09 13:53:13;;;;;;;;;;;19.00;73.40;;;;;;5058965;28;19913;-80
2022/10/09 13:55:39;;;;;;;;;;;18.80;73.40;;;;;;5062002;28;19948;-78
2022/10/09 13:58:04;;;;;;;;;;;18.70;73.70;;;;;;5059027;28;19916;-81
2022/10/09 14:00:30;;;;;;;;;;;18.60;74.70;;;;;;5066107;28;19919;-78
2022/10/09 14:02:56;;;;;;;;;;;18.40;74.30;;;;;;5063843;28;19941;-81
2022/10/09 14:05:22;;;;;;;;;;;18.30;75.40;;;;;;5060218;28;20361;-81
2022/10/09 14:07:48;;;;;;;;;;;18.10;75.60;;;;;;5066465;28;19939;-81
2022/10/09 14:10:13;;;;;;;;;;;18.00;75.70;;;;;;5060210;28;19909;-80
2022/10/09 14:12:39;;;;;;;;;;;17.90;76.30;;;;;;5058327;28;19913;-82
2022/10/09 14:15:05;;;;;;;;;;;17.80;76.20;;;;;;5060918;28;19948;-80
2022/10/09 14:17:31;;;;;;;;;;;17.70;77.00;;;;;;5060109;28;19920;-80
2022/10/09 14:19:57;;;;;;;;;;;17.60;77.30;;;;;;5061061;28;19908;-81
2022/10/09 14:22:22;;;;;;;;;;;17.50;77.70;;;;;;5067550;28;19923;-80
2022/10/09 14:24:48;;;;;;;;;;;17.40;76.80;;;;;;5071851;28;19908;-79
2022/10/09 14:27:14;;;;;;;;;;;17.40;77.30;;;;;;5072398;28;20380;-78
2022/10/09 14:29:39;;;;;;;;;;;17.30;78.00;;;;;;5074630;28;19909;-78
2022/10/09 14:32:08;;;;;;;;;;;17.40;77.90;;;;;;5075714;28;19943;-79
2022/10/09 14:34:34;;;;;;;;;;;17.40;77.90;;;;;;5073744;28;19901;-81
2022/10/09 14:36:59;;;;;;;;;;;17.40;77.80;;;;;;5063487;28;20395;-79
2022/10/09 14:39:25;;;;;;;;;;;17.40;78.00;;;;;;5062616;28;20312;-80
2022/10/09 14:41:51;;;;;;;;;;;17.40;77.50;;;;;;5063790;28;19966;-80